Time;durP1;ratioP1;P1;durP2;ratioP2;P2;SDS_P1;SDS_P2;PMS_P1;PMS_P2;Temp;Humidity;BMP_temperature;BMP_pressure;BME280_temperature;BME280_humidity;BME280_pressure;Samples;Min_cycle;Max_cycle;Signal;HPM_P1;HPM_P2
2023/02/16 00:00:56;;;;;;;139.70;49.30;;;;;;;-145.18;100.00;60484.78;5057364;28;20120;-64
2023/02/16 00:03:22;;;;;;;140.40;48.17;;;;;;;-145.18;100.00;60484.78;5051911;28;20048;-63
2023/02/16 00:05:48;;;;;;;146.77;49.53;;;;;;;-145.18;100.00;60484.78;5055110;28;20037;-63
2023/02/16 00:08:14;;;;;;;156.83;52.30;;;;;;;-145.18;100.00;60484.78;5052855;28;20438;-62
2023/02/16 00:10:40;;;;;;;157.03;53.70;;;;;;;-145.18;100.00;60484.78;5053205;28;20028;-62
2023/02/16 00:13:44;;;;;;;158.57;53.60;;;;;;;-145.18;100.00;60484.78;5059359;28;20406;-63
2023/02/16 00:16:15;;;;;;;162.33;51.67;;;;;;;-145.18;100.00;60484.78;5056265;28;20021;-62
2023/02/16 00:18:40;;;;;;;182.00;54.40;;;;;;;-145.18;100.00;60484.78;5057519;28;20021;-62
2023/02/16 00:21:06;;;;;;;189.50;54.97;;;;;;;-145.18;100.00;60484.78;5053183;28;20032;-62
2023/02/16 00:23:31;;;;;;;177.47;55.87;;;;;;;-145.18;100.00;60484.78;5058702;28;20033;-62
2023/02/16 00:25:57;;;;;;;166.67;54.80;;;;;;;-145.18;100.00;60484.78;5062479;28;20083;-64
2023/02/16 00:28:22;;;;;;;173.67;53.70;;;;;;;-145.18;100.00;60484.78;5049143;28;20025;-63
2023/02/16 00:30:49;;;;;;;157.73;52.57;;;;;;;-145.18;100.00;60484.78;5062598;28;20032;-64
2023/02/16 00:33:16;;;;;;;148.13;51.37;;;;;;;-145.18;100.00;60484.78;5049294;28;20094;-62
2023/02/16 00:35:42;;;;;;;155.43;52.57;;;;;;;-145.18;100.00;60484.78;5065200;28;20151;-62
2023/02/16 00:38:07;;;;;;;159.27;51.50;;;;;;;-145.18;100.00;60484.78;5062183;28;20531;-63
2023/02/16 00:40:33;;;;;;;155.67;50.20;;;;;;;-145.18;100.00;60484.78;5061580;28;20048;-62
2023/02/16 00:42:59;;;;;;;156.47;50.83;;;;;;;-145.18;100.00;60484.78;5059069;28;20056;-62
2023/02/16 00:45:25;;;;;;;136.57;48.70;;;;;;;-145.18;100.00;60484.78;5055558;28;20059;-62
2023/02/16 00:47:51;;;;;;;141.27;48.43;;;;;;;-145.18;100.00;60484.78;5052286;28;20442;-61
2023/02/16 00:50:27;;;;;;;145.63;48.00;;;;;;;-145.18;100.00;60484.78;5053082;28;20013;-62
2023/02/16 00:52:53;;;;;;;142.67;47.10;;;;;;;-145.18;100.00;60484.78;5051439;28;20025;-62
2023/02/16 00:55:20;;;;;;;151.07;50.10;;;;;;;-145.18;100.00;60484.78;5052753;28;20592;-63
2023/02/16 00:57:59;;;;;;;167.17;51.87;;;;;;;-145.18;100.00;60484.78;5049622;28;20037;-61
2023/02/16 01:00:38;;;;;;;159.50;52.53;;;;;;;-145.18;100.00;60484.78;5052892;28;20539;-61
2023/02/16 01:03:12;;;;;;;177.87;52.20;;;;;;;-145.18;100.00;60484.78;5049403;28;20039;-61
2023/02/16 01:05:37;;;;;;;182.83;54.50;;;;;;;-145.18;100.00;60484.78;5052693;28;20404;-62
2023/02/16 01:11:11;;;;;;;193.80;56.07;;;;;;;-145.18;100.00;60484.78;5052712;28;20047;-61
2023/02/16 01:13:46;;;;;;;196.07;54.20;;;;;;;-145.18;100.00;60484.78;5059660;28;20078;-61
2023/02/16 01:16:24;;;;;;;200.00;57.73;;;;;;;-145.18;100.00;60484.78;5068717;28;20054;-62
2023/02/16 01:18:50;;;;;;;193.00;58.33;;;;;;;-145.18;100.00;60484.78;5052832;28;20425;-62
2023/02/16 01:21:16;;;;;;;203.30;60.03;;;;;;;-145.18;100.00;60484.78;5057232;28;20514;-63
2023/02/16 01:23:41;;;;;;;211.77;59.40;;;;;;;-145.18;100.00;60484.78;5051915;28;20031;-62
2023/02/16 01:26:13;;;;;;;206.77;60.10;;;;;;;-145.18;100.00;60484.78;5060902;28;20040;-61
2023/02/16 01:28:38;;;;;;;213.57;59.72;;;;;;;-145.18;100.00;60484.78;5053603;28;20078;-60
2023/02/16 01:31:05;;;;;;;207.33;60.70;;;;;;;-145.18;100.00;60484.78;5048193;28;20476;-62
2023/02/16 01:33:31;;;;;;;213.07;59.47;;;;;;;-145.18;100.00;60484.78;5050879;28;20040;-61
2023/02/16 01:35:56;;;;;;;200.37;57.17;;;;;;;-145.18;100.00;60484.78;5049256;28;20043;-63
2023/02/16 01:38:25;;;;;;;206.53;55.67;;;;;;;-145.18;100.00;60484.78;5051302;28;20017;-62
2023/02/16 01:41:03;;;;;;;188.33;54.93;;;;;;;-145.18;100.00;60484.78;5056323;28;20029;-61
2023/02/16 01:43:36;;;;;;;218.10;57.47;;;;;;;-145.18;100.00;60484.78;5052774;28;20024;-61
2023/02/16 01:46:15;;;;;;;238.00;61.20;;;;;;;-145.18;100.00;60484.78;5047949;28;20040;-61
2023/02/16 01:48:41;;;;;;;219.37;59.37;;;;;;;-145.18;100.00;60484.78;5056806;28;20107;-62
2023/02/16 01:51:18;;;;;;;239.03;61.43;;;;;;;-145.18;100.00;60484.78;5067017;28;20553;-61
2023/02/16 01:53:51;;;;;;;236.60;60.30;;;;;;;-145.18;100.00;60484.78;5050581;28;20975;-61
2023/02/16 01:56:29;;;;;;;241.47;62.53;;;;;;;-145.18;100.00;60484.78;5052090;28;20024;-61
2023/02/16 01:59:02;;;;;;;232.73;63.20;;;;;;;-145.18;100.00;60484.78;5050896;28;20040;-62
2023/02/16 02:07:56;;;;;;;257.40;62.00;;;;;;;-145.18;100.00;60484.78;5057502;28;20030;-68
2023/02/16 02:10:57;;;;;;;234.90;63.93;;;;;;;-145.18;100.00;60484.78;5066658;28;20029;-68
2023/02/16 02:13:40;;;;;;;223.60;61.47;;;;;;;-145.18;100.00;60484.78;5066503;28;20021;-68
2023/02/16 02:16:06;;;;;;;243.63;65.00;;;;;;;-145.18;100.00;60484.78;5069859;28;20048;-69
2023/02/16 02:18:32;;;;;;;236.07;61.40;;;;;;;-145.18;100.00;60484.78;5062683;28;20074;-69
2023/02/16 02:24:02;;;;;;;237.90;60.80;;;;;;;-145.18;100.00;60484.78;5059955;28;20086;-69
2023/02/16 02:26:55;;;;;;;244.83;60.23;;;;;;;-145.18;100.00;60484.78;5054994;28;20032;-69
2023/02/16 02:29:26;;;;;;;242.43;61.40;;;;;;;-145.18;100.00;60484.78;5056377;28;20033;-69
2023/02/16 02:32:23;;;;;;;240.25;61.17;;;;;;;-145.18;100.00;60484.78;5048434;28;20032;-69
2023/02/16 02:35:17;;;;;;;236.77;60.37;;;;;;;-145.18;100.00;60484.78;5056862;28;20456;-68
2023/02/16 02:37:47;;;;;;;246.20;60.03;;;;;;;-145.18;100.00;60484.78;5068473;28;20025;-69
2023/02/16 02:40:51;;;;;;;233.67;59.07;;;;;;;-145.18;100.00;60484.78;5051369;28;20029;-69
2023/02/16 02:43:21;;;;;;;236.53;58.33;;;;;;;-145.18;100.00;60484.78;5029873;28;20033;-68
2023/02/16 02:45:55;;;;;;;235.30;62.07;;;;;;;-145.18;100.00;60484.78;5061193;28;20020;-69
2023/02/16 02:48:21;;;;;;;248.60;62.33;;;;;;;-145.18;100.00;60484.78;5056027;28;20029;-69
2023/02/16 03:00:39;;;;;;;237.77;59.63;;;;;;;-145.18;100.00;60484.78;5066055;28;20031;-68
2023/02/16 03:02:31;;;;;;;239.80;60.33;;;;;;;-145.18;100.00;60484.78;5045368;28;20100;-70
2023/02/16 03:04:59;;;;;;;249.37;63.33;;;;;;;-145.18;100.00;60484.78;5035897;28;20025;-69
2023/02/16 03:07:45;;;;;;;262.93;65.03;;;;;;;-145.18;100.00;60484.78;5041423;28;20094;-69
2023/02/16 03:12:57;;;;;;;268.37;66.33;;;;;;;-145.18;100.00;60484.78;5034987;28;20445;-70
2023/02/16 03:15:24;;;;;;;261.63;65.63;;;;;;;-145.18;100.00;60484.78;5037448;28;20024;-69
2023/02/16 03:31:39;;;;;;;282.20;72.93;;;;;;;-145.18;100.00;60484.78;5034007;28;20202;-69
2023/02/16 03:34:06;;;;;;;304.17;75.50;;;;;;;-145.18;100.00;60484.78;5034764;28;20082;-69
2023/02/16 03:36:34;;;;;;;293.77;74.70;;;;;;;-145.18;100.00;60484.78;5039369;28;20033;-69
2023/02/16 03:39:01;;;;;;;301.70;75.03;;;;;;;-145.18;100.00;60484.78;5035301;28;20025;-70
2023/02/16 03:41:31;;;;;;;304.27;76.03;;;;;;;-145.18;100.00;60484.78;5034825;28;20471;-70
2023/02/16 03:43:57;;;;;;;299.40;75.07;;;;;;;-145.18;100.00;60484.78;5042725;28;20030;-70
2023/02/16 03:46:22;;;;;;;284.43;74.63;;;;;;;-145.18;100.00;60484.78;5045681;28;20512;-70
2023/02/16 03:48:48;;;;;;;300.10;76.93;;;;;;;-145.18;100.00;60484.78;5035259;28;20158;-70
2023/02/16 03:51:14;;;;;;;312.20;79.33;;;;;;;-145.18;100.00;60484.78;5042799;28;20483;-70
2023/02/16 03:53:39;;;;;;;278.23;77.37;;;;;;;-145.18;100.00;60484.78;5043188;28;20100;-70
2023/02/16 03:56:05;;;;;;;308.53;79.43;;;;;;;-145.18;100.00;60484.78;5038922;28;20033;-70
2023/02/16 03:58:30;;;;;;;299.17;78.37;;;;;;;-145.18;100.00;60484.78;5039903;28;20025;-70
2023/02/16 04:00:57;;;;;;;297.60;80.40;;;;;;;-145.18;100.00;60484.78;5038604;28;20037;-70
2023/02/16 04:03:23;;;;;;;299.67;78.60;;;;;;;-145.18;100.00;60484.78;5040833;28;20537;-70
2023/02/16 04:05:48;;;;;;;303.67;81.50;;;;;;;-145.18;100.00;60484.78;5035609;28;20211;-70
2023/02/16 04:08:14;;;;;;;287.73;79.37;;;;;;;-145.18;100.00;60484.78;5039235;28;20031;-70
2023/02/16 04:10:39;;;;;;;285.20;81.60;;;;;;;-145.18;100.00;60484.78;5042588;28;20036;-70
2023/02/16 04:13:05;;;;;;;290.67;82.23;;;;;;;-145.18;100.00;60484.78;5037141;28;20037;-70
2023/02/16 04:15:30;;;;;;;285.90;80.40;;;;;;;-145.18;100.00;60484.78;5044716;28;20025;-70
2023/02/16 04:17:56;;;;;;;277.57;80.40;;;;;;;-145.18;100.00;60484.78;5041279;28;20029;-71
2023/02/16 04:20:25;;;;;;;274.67;77.77;;;;;;;-145.18;100.00;60484.78;5033829;28;20039;-70
2023/02/16 04:22:51;;;;;;;281.43;79.63;;;;;;;-145.18;100.00;60484.78;5043073;28;20028;-70
2023/02/16 04:25:17;;;;;;;275.20;79.13;;;;;;;-145.18;100.00;60484.78;5052619;28;20556;-70
2023/02/16 04:27:43;;;;;;;284.37;80.33;;;;;;;-145.18;100.00;60484.78;5040176;28;20033;-70
2023/02/16 04:30:12;;;;;;;276.77;78.43;;;;;;;-145.18;100.00;60484.78;5035768;28;20055;-70
2023/02/16 04:32:37;;;;;;;260.83;78.90;;;;;;;-145.18;100.00;60484.78;5044148;28;20421;-70
2023/02/16 04:35:03;;;;;;;268.17;75.93;;;;;;;-145.18;100.00;60484.78;5035922;28;20025;-70
2023/02/16 04:37:29;;;;;;;280.27;78.97;;;;;;;-145.18;100.00;60484.78;5038582;28;20044;-70
2023/02/16 04:39:55;;;;;;;275.83;81.53;;;;;;;-145.18;100.00;60484.78;5037577;28;20079;-70
2023/02/16 04:42:20;;;;;;;265.80;78.73;;;;;;;-145.18;100.00;60484.78;5038282;28;20495;-70
2023/02/16 04:44:46;;;;;;;260.20;78.23;;;;;;;-145.18;100.00;60484.78;5047673;28;20028;-70
2023/02/16 04:47:11;;;;;;;238.63;75.77;;;;;;;-145.18;100.00;60484.78;5041506;28;20032;-71
2023/02/16 04:49:36;;;;;;;252.03;78.87;;;;;;;-145.18;100.00;60484.78;5037530;28;20097;-70
2023/02/16 04:52:02;;;;;;;251.93;76.33;;;;;;;-145.18;100.00;60484.78;5019819;28;20029;-70
2023/02/16 04:54:29;;;;;;;245.00;77.77;;;;;;;-145.18;100.00;60484.78;5034548;28;20036;-70
2023/02/16 04:56:55;;;;;;;238.40;74.50;;;;;;;-145.18;100.00;60484.78;5035830;28;20025;-71
2023/02/16 04:59:20;;;;;;;239.00;75.87;;;;;;;-145.18;100.00;60484.78;5046866;28;20025;-70
2023/02/16 05:01:45;;;;;;;256.83;75.77;;;;;;;-145.18;100.00;60484.78;5045710;28;20167;-70
2023/02/16 05:04:11;;;;;;;251.70;75.03;;;;;;;-145.18;100.00;60484.78;5049005;28;20052;-70
2023/02/16 05:06:37;;;;;;;249.73;77.77;;;;;;;-145.18;100.00;60484.78;5043565;28;20428;-71
2023/02/16 05:09:04;;;;;;;257.03;78.60;;;;;;;-145.18;100.00;60484.78;5051481;28;20125;-70
2023/02/16 05:17:05;;;;;;;244.37;74.53;;;;;;;-145.18;100.00;60484.78;5041270;28;20503;-70
2023/02/16 05:19:30;;;;;;;238.43;73.63;;;;;;;-145.18;100.00;60484.78;5040582;28;20284;-70
2023/02/16 05:21:55;;;;;;;227.33;72.50;;;;;;;-145.18;100.00;60484.78;5050956;28;20047;-70
2023/02/16 05:24:21;;;;;;;222.53;69.37;;;;;;;-145.18;100.00;60484.78;5043588;28;20503;-70
2023/02/16 05:26:46;;;;;;;213.23;69.13;;;;;;;-145.18;100.00;60484.78;5036255;28;20033;-70
2023/02/16 05:29:12;;;;;;;250.83;76.43;;;;;;;-145.18;100.00;60484.78;5035996;28;20048;-70
2023/02/16 05:31:37;;;;;;;235.57;77.17;;;;;;;-145.18;100.00;60484.78;5018197;28;20462;-70
2023/02/16 05:34:02;;;;;;;208.43;73.73;;;;;;;-145.18;100.00;60484.78;5039151;28;20039;-70
2023/02/16 05:36:28;;;;;;;207.53;72.60;;;;;;;-145.18;100.00;60484.78;5039011;28;20033;-70
2023/02/16 05:38:53;;;;;;;189.63;68.07;;;;;;;-145.18;100.00;60484.78;5038944;28;20022;-70
2023/02/16 05:41:24;;;;;;;177.87;61.77;;;;;;;-145.18;100.00;60484.78;5032637;28;20029;-70
2023/02/16 05:43:51;;;;;;;165.95;62.30;;;;;;;-145.18;100.00;60484.78;5042924;28;20090;-70
2023/02/16 05:46:17;;;;;;;169.47;61.30;;;;;;;-145.18;100.00;60484.78;5033959;28;20121;-70
2023/02/16 05:48:42;;;;;;;160.73;59.57;;;;;;;-145.18;100.00;60484.78;5033656;28;20449;-70
2023/02/16 05:51:07;;;;;;;143.30;55.60;;;;;;;-145.18;100.00;60484.78;5049592;28;20028;-71
2023/02/16 05:53:33;;;;;;;132.50;53.70;;;;;;;-145.18;100.00;60484.78;5044057;28;20043;-71
2023/02/16 05:55:58;;;;;;;128.40;52.77;;;;;;;-145.18;100.00;60484.78;5031961;28;20025;-71
2023/02/16 05:58:23;;;;;;;119.27;49.50;;;;;;;-145.18;100.00;60484.78;5043888;28;20021;-71
2023/02/16 06:00:49;;;;;;;124.43;49.00;;;;;;;-145.18;100.00;60484.78;5016274;28;20421;-71
2023/02/16 06:03:14;;;;;;;121.73;50.27;;;;;;;-145.18;100.00;60484.78;5045697;28;20021;-70
2023/02/16 06:05:39;;;;;;;122.80;50.97;;;;;;;-145.18;100.00;60484.78;5038308;28;20485;-71
2023/02/16 06:08:05;;;;;;;115.07;48.97;;;;;;;-145.18;100.00;60484.78;5039642;28;20432;-71
2023/02/16 06:10:30;;;;;;;109.70;47.57;;;;;;;-145.18;100.00;60484.78;5037864;28;20053;-71
2023/02/16 06:12:55;;;;;;;101.53;45.70;;;;;;;-145.18;100.00;60484.78;5044526;28;20083;-71
2023/02/16 06:15:21;;;;;;;108.50;46.80;;;;;;;-145.18;100.00;60484.78;5040491;28;20515;-71
2023/02/16 06:17:46;;;;;;;100.43;44.07;;;;;;;-145.18;100.00;60484.78;5036055;28;20088;-70
2023/02/16 06:20:12;;;;;;;95.27;43.07;;;;;;;-145.18;100.00;60484.78;5031605;28;20092;-71
2023/02/16 06:22:37;;;;;;;88.13;42.47;;;;;;;-145.18;100.00;60484.78;5040425;28;20035;-71
2023/02/16 06:25:02;;;;;;;87.13;41.10;;;;;;;-145.18;100.00;60484.78;5049623;28;20124;-70
2023/02/16 06:27:28;;;;;;;86.80;40.00;;;;;;;-145.18;100.00;60484.78;5048217;28;20033;-71
2023/02/16 06:29:53;;;;;;;84.57;39.83;;;;;;;-145.18;100.00;60484.78;5050700;28;20020;-71
2023/02/16 06:32:19;;;;;;;87.03;41.03;;;;;;;-145.18;100.00;60484.78;5050351;28;20124;-71
2023/02/16 06:34:45;;;;;;;80.53;38.83;;;;;;;-145.18;100.00;60484.78;5048168;28;20052;-70
2023/02/16 06:37:10;;;;;;;90.00;40.80;;;;;;;-145.18;100.00;60484.78;5049770;28;20085;-71
2023/02/16 06:39:35;;;;;;;86.43;40.33;;;;;;;-145.18;100.00;60484.78;5049139;28;20496;-71
2023/02/16 06:42:01;;;;;;;90.57;40.20;;;;;;;-145.18;100.00;60484.78;5050347;28;20242;-71
2023/02/16 06:44:26;;;;;;;84.27;39.30;;;;;;;-145.18;100.00;60484.78;5046953;28;20476;-71
2023/02/16 06:46:51;;;;;;;84.90;40.23;;;;;;;-145.18;100.00;60484.78;5048843;28;20061;-71
2023/02/16 06:49:19;;;;;;;86.97;38.50;;;;;;;-145.18;100.00;60484.78;5043670;28;20029;-71
2023/02/16 06:51:45;;;;;;;80.87;39.30;;;;;;;-145.18;100.00;60484.78;5037591;28;20078;-71
2023/02/16 06:54:11;;;;;;;80.40;38.83;;;;;;;-145.18;100.00;60484.78;5048975;28;20028;-71
2023/02/16 06:56:37;;;;;;;75.17;37.50;;;;;;;-145.18;100.00;60484.78;5051197;28;20396;-71
2023/02/16 06:59:03;;;;;;;72.53;37.63;;;;;;;-145.18;100.00;60484.78;5046812;28;20032;-71
2023/02/16 07:01:28;;;;;;;75.23;37.43;;;;;;;-145.18;100.00;60484.78;5049976;28;20045;-71
2023/02/16 07:03:55;;;;;;;69.20;37.23;;;;;;;-145.18;100.00;60484.78;5048165;28;20135;-71
2023/02/16 07:06:23;;;;;;;78.40;36.57;;;;;;;-145.18;100.00;60484.78;5051625;28;20365;-71
2023/02/16 07:08:49;;;;;;;80.77;38.60;;;;;;;-145.18;100.00;60484.78;5049188;28;20373;-71
2023/02/16 07:11:15;;;;;;;74.67;36.73;;;;;;;-145.18;100.00;60484.78;5049730;28;20040;-71
2023/02/16 07:13:41;;;;;;;78.40;36.03;;;;;;;-145.18;100.00;60484.78;5048354;28;20041;-71
2023/02/16 07:16:06;;;;;;;68.60;34.63;;;;;;;-145.18;100.00;60484.78;5049843;28;20400;-71
2023/02/16 07:18:33;;;;;;;66.47;33.90;;;;;;;-145.18;100.00;60484.78;5049749;28;20060;-71
2023/02/16 07:20:59;;;;;;;68.00;34.40;;;;;;;-145.18;100.00;60484.78;5050521;28;20068;-71
2023/02/16 07:23:24;;;;;;;72.70;36.33;;;;;;;-145.18;100.00;60484.78;5050709;28;20037;-71
2023/02/16 07:25:50;;;;;;;67.77;34.87;;;;;;;-145.18;100.00;60484.78;5050628;28;20487;-71
2023/02/16 07:28:15;;;;;;;66.47;35.30;;;;;;;-145.18;100.00;60484.78;5052033;28;20032;-71
2023/02/16 07:30:40;;;;;;;70.60;35.60;;;;;;;-145.18;100.00;60484.78;5052828;28;20059;-71
2023/02/16 07:33:06;;;;;;;65.27;33.23;;;;;;;-145.18;100.00;60484.78;5053023;28;20028;-71
2023/02/16 07:35:33;;;;;;;73.33;35.10;;;;;;;-145.18;100.00;60484.78;5053091;28;20029;-71
2023/02/16 07:37:59;;;;;;;68.33;33.33;;;;;;;-145.18;100.00;60484.78;5054940;28;20037;-71
2023/02/16 07:40:24;;;;;;;70.10;35.00;;;;;;;-145.18;100.00;60484.78;5054620;28;20035;-71
2023/02/16 07:42:50;;;;;;;67.30;34.67;;;;;;;-145.18;100.00;60484.78;5052107;28;20028;-71
2023/02/16 07:45:15;;;;;;;64.63;33.87;;;;;;;-145.18;100.00;60484.78;5053612;28;20043;-71
2023/02/16 07:47:41;;;;;;;60.67;31.90;;;;;;;-145.18;100.00;60484.78;5049214;28;20060;-71
2023/02/16 07:50:07;;;;;;;63.67;31.67;;;;;;;-145.18;100.00;60484.78;5051829;28;20039;-71
2023/02/16 07:52:33;;;;;;;64.77;33.20;;;;;;;-145.18;100.00;60484.78;5054704;28;20025;-71
2023/02/16 07:54:58;;;;;;;63.30;33.17;;;;;;;-145.18;100.00;60484.78;5053825;28;20037;-71
2023/02/16 07:57:25;;;;;;;65.80;32.20;;;;;;;-145.18;100.00;60484.78;5051537;28;20492;-72
2023/02/16 07:59:51;;;;;;;62.40;33.27;;;;;;;-145.18;100.00;60484.78;5052765;28;21963;-72
2023/02/16 08:02:18;;;;;;;64.20;32.87;;;;;;;-145.18;100.00;60484.78;5054509;28;20404;-71
2023/02/16 08:04:44;;;;;;;63.50;30.80;;;;;;;-145.18;100.00;60484.78;5054257;28;20529;-71
2023/02/16 08:07:20;;;;;;;60.10;32.33;;;;;;;-145.18;100.00;60484.78;5053308;28;20040;-71
2023/02/16 08:09:45;;;;;;;65.33;32.30;;;;;;;-145.18;100.00;60484.78;5034635;28;20487;-70
2023/02/16 08:12:12;;;;;;;65.83;33.43;;;;;;;-145.18;100.00;60484.78;5048941;28;20033;-71
2023/02/16 08:14:38;;;;;;;66.83;32.93;;;;;;;-145.18;100.00;60484.78;5037796;28;20028;-71
2023/02/16 08:17:05;;;;;;;67.03;34.03;;;;;;;-145.18;100.00;60484.78;5052456;28;20044;-72
2023/02/16 08:19:30;;;;;;;65.00;33.20;;;;;;;-145.18;100.00;60484.78;5053478;28;20063;-72
2023/02/16 08:21:58;;;;;;;60.40;32.83;;;;;;;-145.18;100.00;60484.78;5052729;28;20110;-72
2023/02/16 08:24:24;;;;;;;59.53;31.80;;;;;;;-145.18;100.00;60484.78;5053710;28;20021;-72
2023/02/16 08:26:52;;;;;;;58.77;31.47;;;;;;;-145.18;100.00;60484.78;5053935;28;20097;-72
2023/02/16 08:29:18;;;;;;;58.37;30.60;;;;;;;-145.18;100.00;60484.78;5052825;28;20039;-70
2023/02/16 08:31:45;;;;;;;63.87;31.73;;;;;;;-145.18;100.00;60484.78;5050546;28;20029;-70
2023/02/16 08:34:12;;;;;;;56.47;29.77;;;;;;;-145.18;100.00;60484.78;5042474;28;20428;-70
2023/02/16 08:36:39;;;;;;;58.53;30.13;;;;;;;-145.18;100.00;60484.78;5054095;28;20025;-71
2023/02/16 08:39:07;;;;;;;53.00;29.30;;;;;;;-145.18;100.00;60484.78;5052616;28;20036;-70
2023/02/16 08:41:35;;;;;;;56.40;29.47;;;;;;;-145.18;100.00;60484.78;5053956;28;20102;-70
2023/02/16 08:44:01;;;;;;;53.37;28.53;;;;;;;-145.18;100.00;60484.78;5051610;28;20036;-71
2023/02/16 08:46:28;;;;;;;50.87;28.27;;;;;;;-145.18;100.00;60484.78;5050325;28;20037;-70
2023/02/16 08:48:58;;;;;;;54.77;29.40;;;;;;;-145.18;100.00;60484.78;5052703;28;20029;-71
2023/02/16 08:51:24;;;;;;;53.30;29.20;;;;;;;-145.18;100.00;60484.78;5053242;28;20031;-70
2023/02/16 08:53:51;;;;;;;55.07;28.60;;;;;;;-145.18;100.00;60484.78;5052767;28;20033;-70
2023/02/16 08:56:18;;;;;;;57.30;29.50;;;;;;;-145.18;100.00;60484.78;5052870;28;20044;-70
2023/02/16 08:58:44;;;;;;;58.23;29.20;;;;;;;-145.18;100.00;60484.78;5052870;28;20031;-70
2023/02/16 09:01:10;;;;;;;53.10;28.10;;;;;;;-145.18;100.00;60484.78;5051519;28;20037;-70
2023/02/16 09:03:40;;;;;;;59.13;28.70;;;;;;;-145.18;100.00;60484.78;5051115;28;20039;-70
2023/02/16 09:06:05;;;;;;;52.47;29.20;;;;;;;-145.18;100.00;60484.78;5051915;28;20111;-70
2023/02/16 09:08:31;;;;;;;54.20;27.97;;;;;;;-145.18;100.00;60484.78;5053681;28;20116;-70
2023/02/16 09:11:01;;;;;;;52.07;25.50;;;;;;;-145.18;100.00;60484.78;5051941;28;20030;-70
2023/02/16 09:13:26;;;;;;;49.40;25.60;;;;;;;-145.18;100.00;60484.78;5052822;28;20667;-70
2023/02/16 09:15:52;;;;;;;54.07;29.43;;;;;;;-145.18;100.00;60484.78;5051444;28;20483;-70
2023/02/16 09:18:17;;;;;;;44.63;22.33;;;;;;;-145.18;100.00;60484.78;5053477;28;20025;-70
2023/02/16 09:20:43;;;;;;;56.40;28.87;;;;;;;-145.18;100.00;60484.78;5052408;28;20049;-69
2023/02/16 09:23:11;;;;;;;54.27;28.30;;;;;;;-145.18;100.00;60484.78;5052895;28;20099;-70
2023/02/16 09:25:38;;;;;;;55.00;27.77;;;;;;;-145.18;100.00;60484.78;5053451;28;20460;-70
2023/02/16 09:28:05;;;;;;;53.00;28.97;;;;;;;-145.18;100.00;60484.78;5053143;28;20028;-70
2023/02/16 09:30:31;;;;;;;54.27;28.53;;;;;;;-145.18;100.00;60484.78;5053257;28;20409;-70
2023/02/16 09:32:58;;;;;;;50.90;27.10;;;;;;;-145.18;100.00;60484.78;5051208;28;20079;-69
2023/02/16 09:35:24;;;;;;;50.07;26.70;;;;;;;-145.18;100.00;60484.78;5052192;28;20032;-70
2023/02/16 09:37:50;;;;;;;55.07;29.00;;;;;;;-145.18;100.00;60484.78;5052695;28;20111;-70
2023/02/16 09:40:15;;;;;;;52.63;27.63;;;;;;;-145.18;100.00;60484.78;5052934;28;20111;-69
2023/02/16 09:42:49;;;;;;;47.67;23.20;;;;;;;-145.18;100.00;60484.78;5050343;28;20460;-70
2023/02/16 09:45:19;;;;;;;52.77;27.73;;;;;;;-145.18;100.00;60484.78;5051966;28;20082;-70
2023/02/16 09:47:46;;;;;;;47.80;23.43;;;;;;;-145.18;100.00;60484.78;5044881;28;20700;-70
2023/02/16 09:50:14;;;;;;;52.77;25.13;;;;;;;-145.18;100.00;60484.78;5038545;28;20025;-69
2023/02/16 09:52:52;;;;;;;47.83;24.60;;;;;;;-145.18;100.00;60484.78;5041670;28;20127;-69
2023/02/16 09:55:19;;;;;;;47.87;24.57;;;;;;;-145.18;100.00;60484.78;5052816;28;20460;-69
2023/02/16 09:58:13;;;;;;;50.20;24.57;;;;;;;-145.18;100.00;60484.78;5048142;28;20029;-70
2023/02/16 10:00:52;;;;;;;54.53;27.87;;;;;;;-145.18;100.00;60484.78;5052599;28;20108;-69
2023/02/16 10:03:33;;;;;;;51.80;26.43;;;;;;;-145.18;100.00;60484.78;5051557;28;20037;-69
2023/02/16 10:06:22;;;;;;;50.90;26.90;;;;;;;-145.18;100.00;60484.78;5050673;28;20488;-69
2023/02/16 10:08:57;;;;;;;52.17;27.90;;;;;;;-145.18;100.00;60484.78;5052471;28;20102;-70
2023/02/16 10:11:44;;;;;;;50.77;27.10;;;;;;;-145.18;100.00;60484.78;5050650;28;20039;-69
2023/02/16 10:14:40;;;;;;;48.27;26.83;;;;;;;-145.18;100.00;60484.78;5049538;28;20037;-70
2023/02/16 10:17:27;;;;;;;48.93;27.70;;;;;;;-145.18;100.00;60484.78;5038715;28;20154;-70
2023/02/16 10:20:34;;;;;;;52.30;26.70;;;;;;;-145.18;100.00;60484.78;5041648;28;20037;-70
2023/02/16 10:23:21;;;;;;;49.43;27.10;;;;;;;-145.18;100.00;60484.78;5050103;28;20029;-69
2023/02/16 10:25:55;;;;;;;58.03;30.50;;;;;;;-145.18;100.00;60484.78;5051648;28;20064;-70
2023/02/16 10:28:27;;;;;;;55.47;28.30;;;;;;;-145.18;100.00;60484.78;5049709;28;20086;-70
2023/02/16 10:31:01;;;;;;;53.27;29.53;;;;;;;-145.18;100.00;60484.78;5049462;28;20028;-70
2023/02/16 10:33:37;;;;;;;56.87;30.63;;;;;;;-145.18;100.00;60484.78;5050542;28;20037;-70
2023/02/16 10:36:15;;;;;;;53.77;29.13;;;;;;;-145.18;100.00;60484.78;5047855;28;20043;-69
2023/02/16 10:39:08;;;;;;;52.17;28.53;;;;;;;-145.18;100.00;60484.78;5051340;28;20091;-70
2023/02/16 10:41:39;;;;;;;56.97;31.00;;;;;;;-145.18;100.00;60484.78;5038711;28;20049;-70
2023/02/16 10:44:25;;;;;;;54.45;28.95;;;;;;;-145.18;100.00;60484.78;5051564;28;20043;-70
2023/02/16 10:46:57;;;;;;;55.17;30.43;;;;;;;-145.18;100.00;60484.78;5047636;28;20039;-70
2023/02/16 10:49:24;;;;;;;56.75;29.20;;;;;;;-145.18;100.00;60484.78;5050965;28;20385;-70
2023/02/16 10:51:53;;;;;;;53.67;29.40;;;;;;;-145.18;100.00;60484.78;5049903;28;20033;-70
2023/02/16 10:54:26;;;;;;;53.57;27.40;;;;;;;-145.18;100.00;60484.78;5051276;28;20109;-70
2023/02/16 10:56:56;;;;;;;52.83;29.20;;;;;;;-145.18;100.00;60484.78;5049649;28;20029;-70
2023/02/16 10:59:25;;;;;;;54.03;29.93;;;;;;;-145.18;100.00;60484.78;5050358;28;20060;-70
2023/02/16 11:01:56;;;;;;;53.17;28.77;;;;;;;-145.18;100.00;60484.78;5053840;28;20025;-70
2023/02/16 11:04:35;;;;;;;51.13;29.70;;;;;;;-145.18;100.00;60484.78;5055944;28;20032;-70
2023/02/16 11:07:05;;;;;;;52.57;29.67;;;;;;;-145.18;100.00;60484.78;5053862;28;20040;-70
2023/02/16 11:09:31;;;;;;;52.43;27.80;;;;;;;-145.18;100.00;60484.78;5057865;28;20388;-70
2023/02/16 11:11:58;;;;;;;53.97;27.47;;;;;;;-145.18;100.00;60484.78;5058023;28;20025;-70
2023/02/16 11:14:30;;;;;;;47.07;25.83;;;;;;;-145.18;100.00;60484.78;5057318;28;20064;-70
2023/02/16 11:17:11;;;;;;;48.40;25.37;;;;;;;-145.18;100.00;60484.78;5056504;28;20784;-69
2023/02/16 11:19:40;;;;;;;50.87;27.77;;;;;;;-145.18;100.00;60484.78;5057775;28;20075;-70
2023/02/16 11:22:08;;;;;;;47.27;26.43;;;;;;;-145.18;100.00;60484.78;5057236;28;20029;-70
2023/02/16 11:24:37;;;;;;;45.67;25.93;;;;;;;-145.18;100.00;60484.78;5058146;28;20036;-70
2023/02/16 11:27:11;;;;;;;48.33;26.23;;;;;;;-145.18;100.00;60484.78;5058108;28;20033;-70
2023/02/16 11:29:37;;;;;;;44.53;26.13;;;;;;;-145.18;100.00;60484.78;5058281;28;20388;-70
2023/02/16 11:32:07;;;;;;;49.37;27.17;;;;;;;-145.18;100.00;60484.78;5055164;28;20036;-70
2023/02/16 11:34:38;;;;;;;49.67;27.23;;;;;;;-145.18;100.00;60484.78;5037816;28;20029;-70
2023/02/16 11:37:27;;;;;;;54.33;26.27;;;;;;;-145.18;100.00;60484.78;5050841;28;20021;-70
2023/02/16 11:39:54;;;;;;;48.70;26.47;;;;;;;-145.18;100.00;60484.78;5054565;28;20032;-70
2023/02/16 11:42:42;;;;;;;45.33;25.93;;;;;;;-145.18;100.00;60484.78;5056105;28;20090;-70